Accueil
METAR-TAF:

METAR-TAF

Aéroports :

Pattaya-Rayong, Thaïlande

latitude: 12-38N, longitude: 101-21E, altitude: 3 m

Observation

Le bulletin a été fait il y a 38 minutes, à 04:00 UTC
Vent 4 kt de ouest
Température 31°C
Humidité 71%
Pression 1011 hPa
Visibilité 10 km ou plus
Quelques nuages à une hauteur de 2000 ft
Nuages épars à une hauteur de 10000 ft

METAR: VTBU 260400Z 27004KT 9999 FEW020 SCT100 31/25 Q1011 NOSIG

Heure: 11:38 (04:38 UTC)

Prévision

Le bulletin a été fait il y a 5 heures et 38 minutes, à 23:00 UTC
Prévision valable du 26 à 00 UTC au 26 à 24 UTC
Vent 4 kt de nord/nord-ouest
Visibilité 10 km ou plus
Quelques nuages à une hauteur de 2000 ft
Evoluant progressivement
du 26 à 01 UTC au 26 à 03 UTC
Vent 10 kt de sud-ouest
Evoluant progressivement
du 26 à 16 UTC au 26 à 18 UTC
Vent 3 kt de nord

TAF: VTBU 252300Z 2600/2624 34004KT 9999 FEW020 BECMG 2601/2603 22010KT BECMG 2616/2618 35003KT

Observations et prévisions météorologiques de plus de 4000 aéroports (messages METAR et TAF).

Les stations disponibles sont représentées par des disques jaunes et rouges sur la carte.

Passer la souris dessus pour voir le nom de la station.

Cliquer dessus pour voir les observations et prévisions météorologiques.

Pour changer de carte: cliquez sur les boutons verts avec une croix noire pour zoomer, sur le bouton vert avec un tiret pour effectuer un zoom arrière, ou sur les flèches vertes pour les cartes adjacentes.


METAR-TAF: